createdAt,value
2023-01-29T00:00:15.487Z,4.87
2023-01-29T00:02:44.107Z,4.83
2023-01-29T00:05:27.136Z,5.03
2023-01-29T00:07:58.347Z,4.30
2023-01-29T00:10:27.448Z,4.30
2023-01-29T00:12:56.192Z,4.83
2023-01-29T00:15:24.685Z,4.67
2023-01-29T00:17:53.036Z,3.87
2023-01-29T00:20:21.458Z,3.70
2023-01-29T00:22:49.849Z,4.13
2023-01-29T00:25:19.531Z,4.10
2023-01-29T00:27:47.912Z,4.40
2023-01-29T00:30:19.779Z,4.10
2023-01-29T00:32:48.692Z,4.33
2023-01-29T00:35:17.159Z,4.80
2023-01-29T00:37:45.528Z,4.30
2023-01-29T00:40:15.238Z,4.47
2023-01-29T00:43:04.862Z,4.53
2023-01-29T00:45:33.710Z,3.47
2023-01-29T00:48:02.088Z,4.30
2023-01-29T00:50:31.103Z,4.20
2023-01-29T00:52:59.638Z,5.03
2023-01-29T00:55:27.981Z,4.67
2023-01-29T00:57:57.757Z,4.90
2023-01-29T01:00:26.351Z,4.53
2023-01-29T01:03:05.602Z,4.60
2023-01-29T01:05:34.444Z,4.70
2023-01-29T01:08:02.921Z,4.57
2023-01-29T01:10:33.012Z,4.20
2023-01-29T01:13:05.305Z,4.30
2023-01-29T01:15:37.237Z,4.47
2023-01-29T01:18:06.527Z,4.27
2023-01-29T01:20:37.092Z,3.83
2023-01-29T01:23:05.548Z,4.13
2023-01-29T01:25:34.514Z,3.83
2023-01-29T01:28:04.276Z,4.70
2023-01-29T01:30:33.076Z,4.20
2023-01-29T01:33:02.172Z,4.33
2023-01-29T01:35:30.634Z,4.50
2023-01-29T01:37:58.959Z,4.37
2023-01-29T01:40:27.807Z,3.97
2023-01-29T01:42:58.998Z,4.17
2023-01-29T01:45:31.344Z,3.70
2023-01-29T01:48:05.782Z,4.47
2023-01-29T01:50:38.144Z,4.73
2023-01-29T01:53:10.907Z,4.67
2023-01-29T01:55:45.435Z,5.10
2023-01-29T01:58:20.167Z,5.00
2023-01-29T02:00:50.378Z,4.30
2023-01-29T02:03:38.281Z,4.17
2023-01-29T02:06:24.594Z,4.77
2023-01-29T02:09:17.390Z,4.40
2023-01-29T02:11:45.849Z,4.50
2023-01-29T02:14:14.189Z,4.97
2023-01-29T02:16:43.946Z,4.70
2023-01-29T02:19:20.808Z,4.73
2023-01-29T02:22:30.203Z,5.03
2023-01-29T02:25:27.834Z,4.17
2023-01-29T02:28:37.709Z,4.67
2023-01-29T02:31:14.979Z,5.03
2023-01-29T02:33:53.293Z,5.13
2023-01-29T02:36:33.275Z,4.63
2023-01-29T02:39:11.965Z,5.10
2023-01-29T02:41:44.985Z,5.20
2023-01-29T02:44:23.381Z,4.53
2023-01-29T02:46:59.353Z,4.87
2023-01-29T02:49:34.547Z,4.20
2023-01-29T02:52:11.136Z,5.30
2023-01-29T02:54:46.756Z,5.00
2023-01-29T02:57:22.891Z,5.23
2023-01-29T02:59:58.502Z,4.37
2023-01-29T03:02:34.734Z,4.43
2023-01-29T03:05:10.354Z,4.47
2023-01-29T03:07:44.789Z,4.93
2023-01-29T03:10:24.469Z,4.70
2023-01-29T03:12:56.987Z,4.10
2023-01-29T03:15:31.579Z,4.17
2023-01-29T03:18:22.501Z,4.47
2023-01-29T03:20:58.524Z,4.20
2023-01-29T03:23:48.666Z,4.17
2023-01-29T03:26:37.371Z,4.20
2023-01-29T03:29:24.805Z,3.97
2023-01-29T03:32:06.657Z,3.57
2023-01-29T03:34:43.684Z,4.23
2023-01-29T03:37:19.919Z,4.23
2023-01-29T03:39:48.690Z,4.47
2023-01-29T03:42:25.707Z,5.00
2023-01-29T03:45:02.396Z,4.17
2023-01-29T03:47:47.499Z,4.40
2023-01-29T03:50:33.923Z,4.43
2023-01-29T03:53:11.423Z,4.63
2023-01-29T03:55:49.369Z,4.10
2023-01-29T03:58:26.465Z,4.43
2023-01-29T04:00:59.674Z,4.30
2023-01-29T04:03:35.326Z,4.63
2023-01-29T04:06:12.750Z,4.20
2023-01-29T04:08:53.701Z,4.40
2023-01-29T04:11:24.615Z,4.57
2023-01-29T04:13:53.723Z,4.40
2023-01-29T04:16:27.590Z,4.23
2023-01-29T04:19:11.720Z,4.37
2023-01-29T04:21:44.333Z,4.80
2023-01-29T04:24:14.794Z,4.53
2023-01-29T04:26:59.230Z,5.40
2023-01-29T04:29:44.717Z,4.53
2023-01-29T04:32:23.260Z,4.53
2023-01-29T04:35:02.762Z,5.20
2023-01-29T04:37:41.397Z,5.00
2023-01-29T04:40:22.536Z,5.10
2023-01-29T04:43:01.208Z,5.47
2023-01-29T04:45:40.189Z,5.47
2023-01-29T04:48:21.417Z,5.20
2023-01-29T04:51:00.479Z,5.13
2023-01-29T04:53:37.945Z,5.63
2023-01-29T04:56:13.481Z,5.40
2023-01-29T04:58:45.696Z,5.77
2023-01-29T05:01:18.264Z,6.03
2023-01-29T05:03:51.762Z,5.87
2023-01-29T05:06:23.048Z,6.20
2023-01-29T05:08:52.751Z,5.07
2023-01-29T05:11:21.853Z,5.37
2023-01-29T05:13:50.550Z,5.03
2023-01-29T05:16:24.104Z,4.65
2023-01-29T05:18:53.596Z,4.77
2023-01-29T05:21:25.003Z,5.13
2023-01-29T05:24:18.479Z,4.87
2023-01-29T05:27:07.584Z,5.50
2023-01-29T05:29:36.135Z,4.57
2023-01-29T05:32:05.238Z,4.27
2023-01-29T05:34:34.352Z,5.60
2023-01-29T05:37:04.476Z,4.87
2023-01-29T05:39:32.933Z,4.63
2023-01-29T05:42:01.423Z,4.67
2023-01-29T05:44:29.811Z,4.50
2023-01-29T05:46:58.201Z,4.87
2023-01-29T05:49:26.679Z,4.17
2023-01-29T05:51:55.051Z,5.33
2023-01-29T05:54:24.836Z,5.20
2023-01-29T05:56:53.344Z,5.37
2023-01-29T05:59:21.944Z,5.23
2023-01-29T06:01:50.465Z,5.67
2023-01-29T06:04:18.851Z,4.23
2023-01-29T06:06:49.767Z,5.00
2023-01-29T06:09:18.156Z,5.10
2023-01-29T06:11:47.997Z,4.93
2023-01-29T06:14:16.473Z,5.17
2023-01-29T06:16:44.893Z,4.67
2023-01-29T06:19:13.330Z,4.53
2023-01-29T06:21:41.769Z,5.30
2023-01-29T06:24:10.841Z,4.80
2023-01-29T06:26:39.341Z,5.00
2023-01-29T06:29:09.099Z,5.10
2023-01-29T06:31:39.309Z,5.10
2023-01-29T06:34:08.736Z,4.23
2023-01-29T06:36:37.356Z,4.43
2023-01-29T06:39:06.254Z,4.57
2023-01-29T06:41:35.536Z,5.10
2023-01-29T06:44:04.020Z,5.23
2023-01-29T06:46:34.561Z,5.20
2023-01-29T06:49:03.003Z,5.40
2023-01-29T06:51:31.499Z,5.20
2023-01-29T06:54:00.148Z,5.73
2023-01-29T06:56:28.720Z,5.17
2023-01-29T06:58:57.195Z,4.83
2023-01-29T07:01:35.675Z,5.07
2023-01-29T07:04:06.490Z,5.10
2023-01-29T07:06:36.152Z,5.43
2023-01-29T07:09:04.978Z,5.17
2023-01-29T07:11:35.512Z,5.30
2023-01-29T07:14:03.942Z,5.77
2023-01-29T07:16:32.422Z,7.97
2023-01-29T07:19:00.854Z,7.30
2023-01-29T07:21:30.612Z,9.07
2023-01-29T07:23:59.063Z,7.80
2023-01-29T07:26:27.515Z,7.53
2023-01-29T07:28:56.191Z,7.23
2023-01-29T07:31:24.702Z,7.43
2023-01-29T07:33:53.250Z,6.97
2023-01-29T07:36:21.705Z,6.43
2023-01-29T07:38:52.516Z,7.70
2023-01-29T07:41:21.089Z,6.50
2023-01-29T07:43:49.857Z,6.73
2023-01-29T07:46:18.329Z,7.40
2023-01-29T07:48:46.843Z,6.97
2023-01-29T07:51:17.101Z,7.97
2023-01-29T07:53:45.620Z,7.03
2023-01-29T07:56:15.537Z,7.73
2023-01-29T07:58:44.064Z,7.87
2023-01-29T08:01:12.635Z,7.30
2023-01-29T08:03:41.151Z,8.50
2023-01-29T08:06:09.746Z,7.80
2023-01-29T08:08:38.278Z,9.13
2023-01-29T08:11:07.098Z,8.40
2023-01-29T08:13:36.979Z,11.87
2023-01-29T08:16:06.890Z,10.83
2023-01-29T08:18:35.349Z,10.47
2023-01-29T08:21:03.847Z,11.30
2023-01-29T08:23:32.408Z,11.67
2023-01-29T08:26:00.895Z,14.23
2023-01-29T08:28:29.364Z,12.87
2023-01-29T08:30:59.468Z,11.60
2023-01-29T08:33:39.059Z,9.90
2023-01-29T08:36:09.689Z,8.93
2023-01-29T08:38:38.246Z,8.90
2023-01-29T08:41:07.668Z,8.43
2023-01-29T08:43:37.121Z,8.27
2023-01-29T08:46:08.361Z,7.47
2023-01-29T08:48:37.052Z,7.50
2023-01-29T08:51:05.939Z,8.53
2023-01-29T08:53:34.532Z,8.20
2023-01-29T08:56:03.062Z,8.10
2023-01-29T08:58:31.585Z,8.27
2023-01-29T09:01:09.198Z,8.77
2023-01-29T09:03:40.923Z,8.17
2023-01-29T09:06:11.371Z,8.20
2023-01-29T09:08:43.056Z,7.67
2023-01-29T09:11:11.726Z,6.73
2023-01-29T09:13:40.326Z,7.27
2023-01-29T09:16:11.414Z,6.37
2023-01-29T09:18:39.836Z,5.83
2023-01-29T09:21:08.311Z,6.67
2023-01-29T09:23:37.111Z,8.13
2023-01-29T09:26:05.982Z,7.50
2023-01-29T09:28:34.523Z,7.07
2023-01-29T09:31:03.753Z,6.57
2023-01-29T09:33:33.705Z,5.67
2023-01-29T09:36:04.470Z,5.60
2023-01-29T09:38:33.003Z,5.10
2023-01-29T09:41:13.585Z,4.30
2023-01-29T09:43:48.518Z,3.93
2023-01-29T09:46:22.475Z,6.07
2023-01-29T09:49:00.052Z,5.80
2023-01-29T09:51:35.489Z,5.10
2023-01-29T09:54:17.582Z,5.73
2023-01-29T09:56:47.429Z,5.10
2023-01-29T09:59:24.327Z,5.63
2023-01-29T10:02:07.963Z,6.47
2023-01-29T10:05:15.037Z,8.40
2023-01-29T10:08:28.052Z,8.43
2023-01-29T10:11:08.267Z,7.47
2023-01-29T10:13:46.484Z,6.83
2023-01-29T10:16:34.410Z,7.37
2023-01-29T10:19:44.894Z,6.83
2023-01-29T10:22:50.450Z,5.73
2023-01-29T10:25:21.683Z,6.47
2023-01-29T10:27:53.859Z,5.70
2023-01-29T10:30:31.234Z,5.90
2023-01-29T10:33:04.461Z,6.03
2023-01-29T10:35:37.641Z,6.17
2023-01-29T10:38:27.393Z,6.30
2023-01-29T10:41:09.570Z,5.93
2023-01-29T10:43:47.949Z,6.30
2023-01-29T10:46:33.752Z,6.17
2023-01-29T10:49:16.608Z,6.43
2023-01-29T10:52:04.731Z,6.83
2023-01-29T10:54:59.367Z,6.77
2023-01-29T10:57:48.134Z,5.60
2023-01-29T11:00:23.960Z,11.03
2023-01-29T11:02:53.804Z,10.27
2023-01-29T11:05:30.715Z,11.03
2023-01-29T11:08:06.672Z,9.17
2023-01-29T11:10:43.480Z,9.30
2023-01-29T11:13:16.464Z,8.17
2023-01-29T11:15:45.670Z,8.50
2023-01-29T14:11:34.408Z,11.73
2023-01-29T14:14:42.883Z,10.87
2023-01-29T14:17:13.884Z,10.00
2023-01-29T14:19:50.205Z,11.70
2023-01-29T14:22:24.336Z,10.80
2023-01-29T14:24:57.516Z,11.07
2023-01-29T14:27:27.237Z,11.10
2023-01-29T14:30:02.438Z,10.90
2023-01-29T14:32:32.493Z,11.93
2023-01-29T14:35:04.196Z,10.40
2023-01-29T14:37:36.412Z,12.30
2023-01-29T14:40:22.904Z,10.70
2023-01-29T14:43:00.888Z,10.03
2023-01-29T14:45:31.852Z,9.40
2023-01-29T14:48:37.521Z,9.43
2023-01-29T14:51:12.326Z,9.53
2023-01-29T14:54:04.075Z,10.03
2023-01-29T14:56:36.698Z,9.57
2023-01-29T14:59:17.829Z,9.70
2023-01-29T15:01:52.835Z,10.73
2023-01-29T15:04:28.157Z,11.00
2023-01-29T15:07:02.791Z,10.93
2023-01-29T15:09:44.064Z,10.43
2023-01-29T15:12:25.893Z,10.07
2023-01-29T15:15:07.477Z,9.70
2023-01-29T15:17:43.370Z,9.53
2023-01-29T15:20:34.450Z,9.43
2023-01-29T15:23:04.223Z,9.77
2023-01-29T15:25:37.116Z,23.63
2023-01-29T15:28:10.246Z,22.50
2023-01-29T15:30:43.208Z,16.47
2023-01-29T15:33:14.379Z,14.30
2023-01-29T15:35:44.526Z,11.67
2023-01-29T15:38:21.401Z,12.63
2023-01-29T15:40:57.624Z,12.03
2023-01-29T15:43:35.708Z,10.23
2023-01-29T15:46:11.242Z,10.73
2023-01-29T15:48:43.160Z,10.23
2023-01-29T15:51:19.450Z,10.17
2023-01-29T15:53:53.191Z,9.13
2023-01-29T15:56:27.880Z,10.13
2023-01-29T15:58:59.355Z,10.43
2023-01-29T16:01:28.947Z,10.07
2023-01-29T16:04:01.587Z,9.37
2023-01-29T16:06:37.384Z,10.50
2023-01-29T16:09:07.257Z,9.93
2023-01-29T16:11:36.719Z,9.13
2023-01-29T16:14:06.626Z,10.27
2023-01-29T16:16:35.361Z,9.50
2023-01-29T16:19:14.960Z,8.87
2023-01-29T16:21:47.198Z,10.30
2023-01-29T16:24:22.385Z,9.87
2023-01-29T16:26:56.447Z,10.30
2023-01-29T16:29:31.748Z,10.00
2023-01-29T16:32:02.695Z,11.00
2023-01-29T16:34:33.828Z,10.37
2023-01-29T16:37:08.309Z,9.43
2023-01-29T16:39:40.370Z,10.73
2023-01-29T16:42:28.583Z,10.47
2023-01-29T16:45:09.878Z,11.90
2023-01-29T16:47:42.275Z,10.33
2023-01-29T16:50:36.135Z,10.87
2023-01-29T16:53:19.848Z,9.77
2023-01-29T16:55:49.931Z,9.23
2023-01-29T16:58:21.457Z,10.07
2023-01-29T17:00:54.002Z,11.13
2023-01-29T17:03:25.918Z,10.37
2023-01-29T17:05:54.887Z,9.87
2023-01-29T17:08:28.169Z,10.53
2023-01-29T17:10:56.663Z,10.83
2023-01-29T17:13:31.284Z,11.20
2023-01-29T17:16:05.326Z,13.17
2023-01-29T17:18:33.741Z,14.77
2023-01-29T17:21:02.133Z,13.50
2023-01-29T17:23:32.031Z,12.13
2023-01-29T17:26:02.826Z,11.30
2023-01-29T17:28:31.875Z,10.20
2023-01-29T17:31:06.245Z,9.93
2023-01-29T17:33:36.103Z,9.07
2023-01-29T17:36:05.101Z,9.00
2023-01-29T17:38:35.608Z,9.07
2023-01-29T17:41:08.839Z,9.50
2023-01-29T17:43:37.193Z,8.60
2023-01-29T17:46:05.990Z,9.97
2023-01-29T17:48:34.472Z,11.03
2023-01-29T17:51:05.615Z,12.00
2023-01-29T17:53:45.159Z,10.17
2023-01-29T17:56:19.964Z,12.30
2023-01-29T17:58:48.401Z,13.37
2023-01-29T18:01:17.104Z,12.67
2023-01-29T18:03:45.511Z,13.23
2023-01-29T18:06:24.645Z,11.97
2023-01-29T18:08:54.608Z,12.47
2023-01-29T18:11:23.066Z,14.20
2023-01-29T18:13:52.353Z,15.80
2023-01-29T18:16:22.088Z,13.80
2023-01-29T18:18:51.173Z,14.30
2023-01-29T18:21:19.939Z,16.20
2023-01-29T18:23:48.346Z,13.37
2023-01-29T18:26:18.546Z,12.60
2023-01-29T18:28:46.958Z,10.77
2023-01-29T18:31:15.398Z,11.13
2023-01-29T18:33:43.843Z,9.60
2023-01-29T18:36:12.375Z,8.87
2023-01-29T18:38:40.880Z,9.10
2023-01-29T18:41:11.619Z,8.30
2023-01-29T18:43:43.097Z,9.30
2023-01-29T18:46:12.337Z,8.70
2023-01-29T18:48:42.651Z,8.43
2023-01-29T18:51:11.349Z,7.43
2023-01-29T18:53:40.070Z,9.07
2023-01-29T18:56:09.576Z,8.47
2023-01-29T18:58:38.329Z,7.77
2023-01-29T19:01:11.988Z,9.07
2023-01-29T19:03:41.736Z,8.87
2023-01-29T19:06:12.647Z,8.30
2023-01-29T19:08:42.986Z,8.30
2023-01-29T19:11:12.640Z,8.20
2023-01-29T19:13:42.576Z,7.40
2023-01-29T19:16:13.603Z,7.97
2023-01-29T19:18:42.488Z,9.10
2023-01-29T19:21:13.253Z,9.93
2023-01-29T19:23:42.378Z,12.83
2023-01-29T19:26:11.628Z,11.63
2023-01-29T19:28:40.565Z,8.90
2023-01-29T19:31:11.468Z,8.90
2023-01-29T19:33:40.061Z,8.17
2023-01-29T19:36:09.418Z,8.37
2023-01-29T19:38:38.771Z,8.60
2023-01-29T19:41:07.646Z,8.03
2023-01-29T19:43:38.209Z,8.03
2023-01-29T19:46:07.515Z,8.10
2023-01-29T19:48:37.511Z,8.60
2023-01-29T19:51:09.545Z,8.13
2023-01-29T19:53:38.766Z,8.63
2023-01-29T19:56:09.872Z,7.83
2023-01-29T19:58:38.627Z,7.57
2023-01-29T20:01:13.877Z,8.30
2023-01-29T20:03:46.483Z,9.53
2023-01-29T20:06:17.079Z,8.97
2023-01-29T20:08:46.758Z,8.23
2023-01-29T20:11:15.788Z,8.50
2023-01-29T20:13:44.653Z,7.87
2023-01-29T20:16:13.201Z,8.30
2023-01-29T20:18:43.079Z,8.27
2023-01-29T20:21:14.818Z,7.97
2023-01-29T20:23:45.689Z,7.60
2023-01-29T20:26:17.448Z,7.53
2023-01-29T20:28:48.385Z,7.93
2023-01-29T20:31:17.741Z,8.17
2023-01-29T20:33:47.471Z,8.23
2023-01-29T20:36:15.900Z,7.30
2023-01-29T20:38:44.690Z,6.80
2023-01-29T20:41:16.037Z,7.73
2023-01-29T20:43:44.652Z,9.43
2023-01-29T20:46:13.766Z,12.40
2023-01-29T20:48:42.922Z,10.83
2023-01-29T20:51:18.484Z,12.50
2023-01-29T20:53:48.605Z,10.97
2023-01-29T20:56:18.310Z,10.33
2023-01-29T20:58:53.003Z,9.87
2023-01-29T21:01:22.081Z,10.17
2023-01-29T21:03:50.404Z,9.80
2023-01-29T21:06:20.134Z,9.43
2023-01-29T21:08:48.426Z,9.43
2023-01-29T21:11:16.789Z,9.10
2023-01-29T21:13:46.848Z,9.17
2023-01-29T21:16:15.266Z,8.87
2023-01-29T21:18:43.525Z,9.03
2023-01-29T21:21:11.956Z,9.13
2023-01-29T21:23:41.630Z,8.43
2023-01-29T21:26:10.038Z,9.03
2023-01-29T21:28:38.343Z,8.97
2023-01-29T21:31:09.984Z,7.70
2023-01-29T21:33:38.781Z,7.77
2023-01-29T21:36:10.013Z,8.00
2023-01-29T21:38:38.664Z,8.50
2023-01-29T21:41:10.418Z,8.27
2023-01-29T21:43:39.019Z,9.07
2023-01-29T21:46:11.953Z,7.67
2023-01-29T21:48:41.536Z,7.60
2023-01-29T21:51:09.899Z,7.90
2023-01-29T21:53:38.226Z,7.90
2023-01-29T21:56:08.439Z,8.93
2023-01-29T21:58:36.787Z,8.67
2023-01-29T22:01:28.094Z,9.07
2023-01-29T22:03:55.004Z,8.93
2023-01-29T22:06:23.307Z,9.57
2023-01-29T22:08:51.940Z,9.43
2023-01-29T22:11:21.725Z,8.10
2023-01-29T22:13:50.003Z,8.80
2023-01-29T22:16:19.012Z,9.63
2023-01-29T22:18:47.596Z,8.93
2023-01-29T22:21:16.043Z,8.77
2023-01-29T22:23:45.253Z,8.87
2023-01-29T22:26:13.590Z,8.23
2023-01-29T22:28:43.465Z,9.40
2023-01-29T22:31:12.212Z,8.60
2023-01-29T22:33:40.576Z,9.43
2023-01-29T22:36:10.007Z,8.83
2023-01-29T22:38:38.349Z,10.03
2023-01-29T22:41:06.744Z,9.27
2023-01-29T22:43:35.110Z,9.40
2023-01-29T22:46:08.763Z,8.87
2023-01-29T22:48:37.203Z,8.87
2023-01-29T22:51:12.041Z,8.90
2023-01-29T22:53:42.341Z,8.73
2023-01-29T22:56:11.800Z,10.70
2023-01-29T22:58:41.187Z,11.13
2023-01-29T23:01:11.678Z,11.97
2023-01-29T23:03:40.003Z,9.60
2023-01-29T23:06:08.349Z,10.13
2023-01-29T23:08:36.670Z,10.00
2023-01-29T23:11:15.046Z,9.63
2023-01-29T23:13:44.576Z,9.87
2023-01-29T23:16:40.571Z,9.87
2023-01-29T23:19:09.135Z,10.60
2023-01-29T23:21:37.482Z,10.60
2023-01-29T23:24:07.150Z,9.07
2023-01-29T23:26:52.769Z,10.00
2023-01-29T23:29:21.293Z,8.97
2023-01-29T23:31:51.036Z,8.53
2023-01-29T23:34:20.404Z,9.10
2023-01-29T23:36:48.906Z,9.73
2023-01-29T23:39:17.720Z,10.20
2023-01-29T23:41:46.033Z,9.70
2023-01-29T23:44:14.366Z,9.13
2023-01-29T23:46:42.723Z,9.27
2023-01-29T23:49:12.507Z,9.13
2023-01-29T23:51:40.835Z,9.10
2023-01-29T23:54:09.306Z,8.97
2023-01-29T23:56:37.606Z,9.93
2023-01-29T23:59:05.950Z,9.30
